Time;durP1;ratioP1;P1;durP2;ratioP2;P2;SDS_P1;SDS_P2;PMS_P1;PMS_P2;Temp;Humidity;BMP_temperature;BMP_pressure;BME280_temperature;BME280_humidity;BME280_pressure;Samples;Min_cycle;Max_cycle;Signal;HPM_P1;HPM_P2
2022/08/09 00:00:12;;;;;;;12.90;9.30;;;;;;;26.70;50.09;101108.34;4942259;28;20052;-85
2022/08/09 00:02:39;;;;;;;11.45;9.40;;;;;;;28.00;50.21;101305.00;4944972;29;20176;-84
2022/08/09 00:05:14;;;;;;;12.13;9.75;;;;;;;26.71;50.17;101115.44;4930266;29;20052;-86
2022/08/09 00:08:01;;;;;;;12.05;10.48;;;;;;;26.78;50.19;101140.69;4942685;28;20074;-86
2022/08/09 00:10:28;;;;;;;12.75;9.95;;;;;;;27.62;51.01;101298.84;4944841;28;20063;-86
2022/08/09 00:12:55;;;;;;;10.73;9.52;;;;;;;27.19;50.95;101228.19;4928859;29;20055;-87
2022/08/09 00:15:23;;;;;;;13.52;9.50;;;;;;;27.20;50.68;101203.41;4930279;29;20052;-87
2022/08/09 00:18:09;;;;;;;14.35;9.93;;;;;;;27.70;51.25;101300.41;4929473;29;20047;-87
2022/08/09 00:20:40;;;;;;;21.50;9.70;;;;;;;27.55;51.41;101265.41;4930512;29;20418;-86
2022/08/09 00:23:16;;;;;;;13.75;9.45;;;;;;;27.24;51.19;101220.97;4929184;29;20308;-88
2022/08/09 00:26:07;;;;;;;13.15;10.15;;;;;;;26.98;51.38;101189.44;4942325;28;20083;-87
2022/08/09 00:28:37;;;;;;;16.80;9.02;;;;;;;27.57;50.95;101262.41;4931348;29;20544;-87
2022/08/09 00:31:05;;;;;;;17.10;9.85;;;;;;;27.79;50.74;101292.69;4948555;29;20055;-85
2022/08/09 00:33:53;;;;;;;12.52;10.60;;;;;;;26.92;51.03;101157.69;4946157;28;20044;-86
2022/08/09 00:36:24;;;;;;;10.75;8.38;;;;;;;27.23;50.87;101191.22;4933222;29;20511;-87
2022/08/09 00:38:57;;;;;;;16.65;9.63;;;;;;;28.22;51.40;101382.50;4932642;29;20288;-84
2022/08/09 00:41:24;;;;;;;12.63;9.75;;;;;;;27.00;51.54;101187.31;4932113;29;20138;-84
2022/08/09 00:44:11;;;;;;;11.90;9.07;;;;;;;26.84;51.23;101160.72;4945578;29;20292;-84
2022/08/09 00:46:53;;;;;;;10.63;8.77;;;;;;;27.17;50.97;101224.81;4933342;29;20050;-85
2022/08/09 00:49:23;;;;;;;31.75;12.70;;;;;;;27.35;54.69;101278.47;4947613;29;20151;-84
2022/08/09 00:51:55;;;;;;;20.05;8.40;;;;;;;26.36;57.06;101150.63;4933756;29;20048;-85
2022/08/09 00:54:23;;;;;;;14.10;9.02;;;;;;;27.68;55.38;101378.91;4950854;29;20058;-84
2022/08/09 00:57:01;;;;;;;11.43;8.65;;;;;;;26.96;56.46;101297.81;4939692;29;20043;-85
2022/08/09 00:59:41;;;;;;;10.23;8.13;;;;;;;26.97;56.92;101334.09;4948781;29;20395;-83
2022/08/09 01:02:19;;;;;;;11.65;8.75;;;;;;;26.36;58.00;101262.22;4947353;29;20063;-84
2022/08/09 01:05:08;;;;;;;8.48;7.70;;;;;;;27.01;58.37;101374.25;4931550;29;20050;-84
2022/08/09 01:07:55;;;;;;;11.63;8.35;;;;;;;26.56;58.61;101330.13;4946283;29;20095;-84
2022/08/09 01:11:06;;;;;;;8.98;8.10;;;;;;;26.62;60.12;101370.88;4932767;29;20082;-83
2022/08/09 01:13:47;;;;;;;9.32;7.82;;;;;;;25.48;59.58;101184.31;4947292;29;20047;-81
2022/08/09 01:16:31;;;;;;;10.50;8.32;;;;;;;26.42;59.29;101323.94;4946157;29;20055;-83
2022/08/09 01:19:09;;;;;;;9.90;8.05;;;;;;;26.55;61.59;101353.78;4928372;29;20139;-82
2022/08/09 01:22:12;;;;;;;10.77;8.95;;;;;;;26.48;60.07;101344.81;4913524;29;20082;-83
2022/08/09 01:24:57;;;;;;;10.20;9.07;;;;;;;26.40;63.66;101361.44;4927709;29;20103;-82
2022/08/09 01:27:27;;;;;;;10.30;9.25;;;;;;;26.14;63.04;101321.66;4927691;29;20083;-84
2022/08/09 01:29:58;;;;;;;11.40;10.20;;;;;;;26.04;63.38;101311.28;4928129;29;20056;-83
2022/08/09 01:32:42;;;;;;;10.77;9.70;;;;;;;26.22;62.63;101354.06;4913459;29;20052;-85
2022/08/09 01:35:27;;;;;;;12.10;9.93;;;;;;;25.92;63.29;101321.22;4947178;29;20180;-83
2022/08/09 01:38:10;;;;;;;11.63;10.40;;;;;;;26.14;63.62;101351.59;4945835;29;20048;-84
2022/08/09 01:40:48;;;;;;;11.50;10.35;;;;;;;26.38;60.52;101344.50;4930523;29;20291;-84
2022/08/09 01:43:31;;;;;;;12.90;10.57;;;;;;;26.20;63.10;101318.06;4932359;29;20410;-83
2022/08/09 01:46:20;;;;;;;13.38;9.30;;;;;;;26.05;62.56;101307.53;4931419;29;20059;-84
2022/08/09 01:48:57;;;;;;;11.95;9.38;;;;;;;25.25;63.42;101204.78;4930935;29;20052;-84
2022/08/09 01:51:39;;;;;;;11.18;10.05;;;;;;;24.85;62.85;101152.53;4931219;29;20054;-83
2022/08/09 01:54:26;;;;;;;11.27;10.05;;;;;;;25.98;63.25;101334.78;4944826;29;20302;-84
2022/08/09 01:57:01;;;;;;;11.52;9.50;;;;;;;25.37;65.01;101243.78;4930847;29;20052;-84
2022/08/09 01:59:31;;;;;;;10.80;9.18;;;;;;;24.83;63.98;101144.63;4946689;29;20051;-84
2022/08/09 02:02:14;;;;;;;15.60;9.48;;;;;;;25.34;64.25;101222.47;4944003;29;20067;-83
2022/08/09 02:04:45;;;;;;;11.43;10.20;;;;;;;26.00;63.87;101326.41;4945788;29;20054;-83
2022/08/09 02:07:15;;;;;;;12.90;9.98;;;;;;;25.19;62.99;101175.75;4945416;29;20158;-84
2022/08/09 02:10:14;;;;;;;12.23;9.40;;;;;;;26.09;60.14;101306.00;4931469;29;20048;-83
2022/08/09 02:12:44;;;;;;;10.57;9.15;;;;;;;25.82;60.97;101266.47;4930455;29;20143;-83
2022/08/09 02:15:12;;;;;;;11.63;9.65;;;;;;;26.04;61.33;101311.28;4930875;29;20095;-83
2022/08/09 02:17:44;;;;;;;10.27;9.32;;;;;;;25.99;62.37;101317.38;4930512;29;20111;-82
2022/08/09 02:20:28;;;;;;;10.63;8.75;;;;;;;26.08;62.15;101345.16;4938577;29;20059;-84
2022/08/09 02:23:02;;;;;;;13.73;9.65;;;;;;;25.78;62.22;101298.72;4941345;28;20091;-82
2022/08/09 02:25:35;;;;;;;10.05;9.05;;;;;;;25.67;62.67;101274.94;4942035;28;20392;-83
2022/08/09 02:28:14;;;;;;;10.60;9.52;;;;;;;25.59;63.26;101254.28;4925777;29;20052;-84
2022/08/09 02:31:00;;;;;;;10.38;9.38;;;;;;;26.15;62.87;101350.56;4941966;29;20303;-81
2022/08/09 02:33:31;;;;;;;11.07;10.07;;;;;;;25.73;63.29;101274.91;4929760;29;20059;-83
2022/08/09 02:36:24;;;;;;;9.93;9.02;;;;;;;24.76;63.09;101118.53;4931321;29;20130;-82
2022/08/09 02:38:54;;;;;;;10.65;9.25;;;;;;;25.82;62.32;101288.22;4945359;29;20060;-84
2022/08/09 02:41:27;;;;;;;9.70;8.70;;;;;;;24.92;61.65;101137.84;4928951;29;20059;-82
2022/08/09 02:44:01;;;;;;;11.02;9.93;;;;;;;24.83;62.22;101133.75;4929939;29;20510;-84
2022/08/09 02:46:40;;;;;;;9.57;8.60;;;;;;;26.27;61.73;101367.00;4943094;29;20142;-84
2022/08/09 02:49:13;;;;;;;11.48;9.05;;;;;;;26.06;61.50;101330.94;4944731;29;20055;-83
2022/08/09 02:51:43;;;;;;;10.27;9.30;;;;;;;26.01;61.33;101322.63;4945299;28;20048;-84
2022/08/09 02:54:13;;;;;;;14.65;9.20;;;;;;;25.85;61.39;101293.22;4944780;29;20088;-86
2022/08/09 02:56:45;;;;;;;12.90;9.52;;;;;;;24.93;61.25;101147.69;4952494;29;20043;-86
2022/08/09 02:59:22;;;;;;;10.32;9.07;;;;;;;25.59;61.05;101267.88;4967876;28;20051;-87
2022/08/09 03:02:05;;;;;;;12.30;9.30;;;;;;;26.18;60.91;101356.38;4954528;29;20046;-87
2022/08/09 03:04:39;;;;;;;10.70;9.60;;;;;;;24.85;60.04;101147.91;4947936;29;20054;-83
2022/08/09 03:07:07;;;;;;;12.32;8.70;;;;;;;26.00;60.73;101320.97;4946130;29;20059;-84
2022/08/09 03:09:42;;;;;;;9.73;8.75;;;;;;;25.29;61.05;101207.88;4929404;29;20051;-84
2022/08/09 03:12:21;;;;;;;9.98;9.07;;;;;;;25.82;61.03;101277.34;4929266;29;20059;-84
2022/08/09 03:14:50;;;;;;;10.02;8.13;;;;;;;26.39;59.97;101357.06;4945530;29;20055;-84
2022/08/09 03:17:17;;;;;;;9.52;8.57;;;;;;;26.01;59.53;101292.69;4945074;29;20052;-85
2022/08/09 03:19:52;;;;;;;11.63;8.50;;;;;;;26.29;59.48;101341.25;4939802;29;20055;-84
2022/08/09 03:22:35;;;;;;;9.77;8.43;;;;;;;25.74;60.47;101271.13;4924538;29;20526;-85
2022/08/09 03:25:08;;;;;;;11.00;8.20;;;;;;;25.55;60.41;101255.78;4925268;29;20056;-86
2022/08/09 03:27:56;;;;;;;9.82;8.93;;;;;;;26.28;59.81;101345.00;4910917;29;20158;-85
2022/08/09 03:30:27;;;;;;;12.32;9.13;;;;;;;25.63;60.47;101266.38;4925823;29;20059;-84
2022/08/09 03:33:03;;;;;;;12.35;8.98;;;;;;;25.12;60.50;101216.53;4912653;29;20517;-84
2022/08/09 03:35:39;;;;;;;9.82;8.55;;;;;;;25.49;61.13;101276.53;4943997;29;20071;-85
2022/08/09 03:38:26;;;;;;;9.45;8.57;;;;;;;25.06;61.16;101222.00;4942150;29;20102;-85
2022/08/09 03:40:54;;;;;;;10.38;8.88;;;;;;;24.86;61.60;101192.22;4945055;29;20047;-83
2022/08/09 03:43:21;;;;;;;9.95;8.95;;;;;;;24.80;61.91;101187.66;4944894;29;20118;-84
2022/08/09 03:45:47;;;;;;;13.95;9.95;;;;;;;25.90;61.46;101350.53;4944791;29;20059;-86
2022/08/09 03:48:34;;;;;;;10.15;9.15;;;;;;;25.97;61.00;101348.59;4929252;29;20253;-83
2022/08/09 03:51:10;;;;;;;9.93;9.13;;;;;;;25.85;60.60;101325.84;4943681;29;20055;-85
2022/08/09 03:53:57;;;;;;;11.10;10.00;;;;;;;26.04;60.22;101356.72;4928809;29;20275;-81
2022/08/09 03:56:25;;;;;;;15.07;10.30;;;;;;;26.15;59.80;101375.88;4944052;29;20667;-84
2022/08/09 03:58:52;;;;;;;12.60;10.45;;;;;;;26.29;60.16;101402.97;4944899;29;20087;-84
2022/08/09 04:01:20;;;;;;;12.52;10.20;;;;;;;26.37;60.64;101421.78;4944210;29;20079;-84
2022/08/09 04:03:53;;;;;;;14.10;10.85;;;;;;;26.29;60.46;101430.19;4945567;28;20481;-83
2022/08/09 04:06:29;;;;;;;11.52;9.40;;;;;;;26.55;60.09;101430.00;4933014;29;20074;-85
2022/08/09 04:08:55;;;;;;;13.40;9.23;;;;;;;26.06;60.16;101390.81;4948675;29;20142;-84
2022/08/09 04:11:22;;;;;;;8.85;8.00;;;;;;;26.31;60.20;101441.69;4948254;29;20056;-85
2022/08/09 04:13:50;;;;;;;9.88;8.65;;;;;;;26.00;59.68;101365.31;4948287;29;20051;-83
2022/08/09 04:16:37;;;;;;;9.52;8.63;;;;;;;26.31;60.35;101449.88;4945527;29;20060;-84
2022/08/09 04:19:04;;;;;;;9.95;8.93;;;;;;;26.08;60.43;101429.50;4948311;29;20445;-84
2022/08/09 04:21:41;;;;;;;10.65;9.15;;;;;;;25.44;60.93;101340.72;4946870;29;20056;-84
2022/08/09 04:24:08;;;;;;;11.80;8.90;;;;;;;25.33;60.83;101315.09;4947929;29;20047;-85
2022/08/09 04:26:36;;;;;;;12.07;9.23;;;;;;;26.31;60.57;101466.19;4948159;29;20075;-83
2022/08/09 04:29:04;;;;;;;10.48;9.15;;;;;;;26.10;60.66;101443.72;4948122;29;20666;-84
2022/08/09 04:31:40;;;;;;;11.30;9.02;;;;;;;26.13;60.42;101442.47;4947326;28;20071;-84
2022/08/09 04:34:13;;;;;;;11.65;9.57;;;;;;;26.22;60.29;101461.03;4946768;28;20364;-86
2022/08/09 04:36:57;;;;;;;11.40;9.27;;;;;;;26.24;60.44;101466.25;4932130;29;20541;-85
2022/08/09 04:39:23;;;;;;;10.40;8.18;;;;;;;25.71;60.27;101402.09;4932032;29;20102;-84
2022/08/09 04:41:56;;;;;;;9.20;8.23;;;;;;;26.00;60.54;101449.66;4947057;29;20056;-83
2022/08/09 04:44:25;;;;;;;9.32;8.23;;;;;;;26.08;60.55;101483.94;4947628;29;20082;-84
2022/08/09 04:46:52;;;;;;;11.13;9.02;;;;;;;26.10;60.87;101486.44;4947819;29;20066;-84
2022/08/09 04:49:31;;;;;;;12.95;8.77;;;;;;;25.73;61.31;101446.22;4947143;29;20062;-85
2022/08/09 04:52:19;;;;;;;9.65;8.57;;;;;;;24.73;60.83;101285.41;4945550;29;20174;-82
2022/08/09 04:55:00;;;;;;;10.50;9.07;;;;;;;24.84;60.70;101300.22;4932857;29;20156;-86
2022/08/09 04:57:29;;;;;;;10.68;8.30;;;;;;;25.97;60.68;101479.16;4937823;29;20260;-85
2022/08/09 05:00:16;;;;;;;8.40;7.22;;;;;;;25.05;60.54;101337.09;4937856;29;20051;-85
2022/08/09 05:02:44;;;;;;;8.82;7.93;;;;;;;25.94;60.23;101472.28;4933792;29;20107;-86
2022/08/09 05:05:18;;;;;;;9.27;8.00;;;;;;;26.12;59.95;101482.44;4950853;29;20066;-86
2022/08/09 05:08:05;;;;;;;7.72;6.95;;;;;;;26.07;59.96;101479.56;4932420;29;20142;-85
2022/08/09 05:10:32;;;;;;;15.48;7.93;;;;;;;25.89;60.09;101452.22;4947812;29;20055;-85
2022/08/09 05:13:02;;;;;;;9.63;7.75;;;;;;;25.38;60.46;101373.16;4947418;29;20066;-86
2022/08/09 05:15:29;;;;;;;10.90;7.90;;;;;;;25.70;60.72;101435.75;4946307;28;20059;-85
2022/08/09 05:18:13;;;;;;;10.02;7.85;;;;;;;25.95;60.50;101473.97;4931744;29;20303;-85
2022/08/09 05:21:00;;;;;;;10.00;7.35;;;;;;;25.76;60.78;101453.09;4926034;29;20526;-86
2022/08/09 05:23:27;;;;;;;8.80;7.72;;;;;;;25.61;60.30;101422.63;4912476;29;20330;-85
2022/08/09 05:26:13;;;;;;;10.48;8.07;;;;;;;25.46;60.26;101398.44;4912704;29;20051;-84
2022/08/09 05:28:55;;;;;;;13.10;8.40;;;;;;;25.04;60.33;101324.59;4926266;29;20135;-86
2022/08/09 05:31:22;;;;;;;10.35;7.22;;;;;;;24.98;59.56;101304.56;4912095;29;20070;-83
2022/08/09 05:34:09;;;;;;;7.68;6.97;;;;;;;25.57;58.88;101389.59;4924317;29;20383;-86
2022/08/09 05:36:43;;;;;;;7.82;7.00;;;;;;;26.12;58.40;101477.00;4932603;29;20066;-85
2022/08/09 05:39:13;;;;;;;8.38;7.30;;;;;;;26.24;57.36;101498.91;4946103;29;20055;-85
2022/08/09 05:41:54;;;;;;;8.35;7.32;;;;;;;25.56;58.72;101387.94;4931093;29;20095;-86
2022/08/09 05:44:21;;;;;;;8.48;7.38;;;;;;;26.05;58.27;101462.59;4946454;29;20055;-85
2022/08/09 05:46:58;;;;;;;7.47;6.85;;;;;;;24.80;58.02;101266.38;4930731;29;20138;-85
2022/08/09 05:49:24;;;;;;;17.65;6.90;;;;;;;25.74;57.20;101407.09;4930744;29;20064;-84
2022/08/09 05:52:11;;;;;;;7.35;6.65;;;;;;;24.58;57.00;101233.25;4944374;29;20055;-85
2022/08/09 05:54:38;;;;;;;10.95;7.57;;;;;;;26.27;57.12;101498.47;4945756;29;20056;-86
2022/08/09 05:57:06;;;;;;;9.20;8.30;;;;;;;25.65;57.05;101375.75;4931427;29;20047;-85
2022/08/09 05:59:38;;;;;;;10.10;8.45;;;;;;;25.11;56.97;101298.22;4931973;28;20048;-86
2022/08/09 06:02:08;;;;;;;8.55;6.53;;;;;;;26.00;56.85;101448.81;4945986;29;20378;-86
2022/08/09 06:04:35;;;;;;;12.82;7.78;;;;;;;26.05;56.52;101443.56;4930588;28;20424;-86
2022/08/09 06:07:10;;;;;;;11.30;7.32;;;;;;;25.79;56.53;101390.94;4946022;28;20056;-84
2022/08/09 06:09:47;;;;;;;10.32;7.05;;;;;;;26.06;55.97;101434.34;4930379;29;20502;-85
2022/08/09 06:12:25;;;;;;;12.57;7.68;;;;;;;25.83;56.48;101425.84;4945456;29;20058;-87
2022/08/09 06:14:55;;;;;;;12.27;7.45;;;;;;;25.35;55.71;101330.13;4946859;29;20044;-86
2022/08/09 06:17:27;;;;;;;17.50;8.15;;;;;;;25.30;56.00;101324.50;4931601;29;20048;-85
2022/08/09 06:20:06;;;;;;;10.80;8.00;;;;;;;25.88;56.18;101439.69;4939922;29;20051;-86
2022/08/09 06:22:34;;;;;;;8.32;7.55;;;;;;;26.05;55.56;101457.16;4946683;28;20615;-85
2022/08/09 06:25:02;;;;;;;11.35;7.72;;;;;;;26.51;55.92;101529.53;4947057;29;20557;-85
2022/08/09 06:27:29;;;;;;;11.73;7.30;;;;;;;25.21;55.99;101316.81;4932295;29;20147;-85
2022/08/09 06:30:15;;;;;;;10.40;7.07;;;;;;;25.20;55.15;101313.28;4930796;29;20230;-85
2022/08/09 06:32:44;;;;;;;8.40;7.45;;;;;;;25.23;55.16;101315.56;4931048;29;20387;-84
2022/08/09 06:35:31;;;;;;;10.23;7.35;;;;;;;25.98;55.67;101467.25;4925162;29;20245;-85
2022/08/09 06:38:18;;;;;;;9.55;7.10;;;;;;;26.26;55.88;101510.41;4925235;29;20590;-85
2022/08/09 06:40:57;;;;;;;9.95;7.50;;;;;;;26.18;56.04;101514.22;4912120;29;20591;-84
2022/08/09 06:43:25;;;;;;;9.20;7.25;;;;;;;25.91;56.24;101467.28;4911892;29;20056;-83
2022/08/09 06:45:59;;;;;;;12.57;7.30;;;;;;;26.33;56.14;101523.97;4927425;29;20076;-85
2022/08/09 06:48:35;;;;;;;14.77;7.28;;;;;;;25.75;56.07;101425.09;4950988;28;20051;-85
2022/08/09 06:51:09;;;;;;;13.50;7.35;;;;;;;25.79;56.17;101430.91;4965549;28;20371;-85
2022/08/09 06:53:36;;;;;;;12.35;7.35;;;;;;;26.10;55.93;101479.09;4950262;29;20054;-85
2022/08/09 06:56:05;;;;;;;9.10;7.78;;;;;;;26.60;55.76;101543.72;4952946;29;20051;-86
2022/08/09 06:58:34;;;;;;;7.60;6.93;;;;;;;25.46;54.91;101333.19;4960339;29;20096;-85
2022/08/09 07:01:21;;;;;;;10.98;7.07;;;;;;;26.79;54.56;101555.53;4955762;28;20470;-85
2022/08/09 07:04:01;;;;;;;8.43;6.80;;;;;;;26.38;53.97;101480.59;4966495;28;20067;-85
2022/08/09 07:06:29;;;;;;;7.63;6.80;;;;;;;26.00;53.89;101427.06;4965741;28;20059;-84
2022/08/09 07:08:56;;;;;;;7.45;6.75;;;;;;;26.89;53.73;101561.31;4965285;28;20055;-84
2022/08/09 07:11:23;;;;;;;8.15;7.35;;;;;;;26.07;53.13;101422.41;4965318;28;20051;-83
2022/08/09 07:13:51;;;;;;;7.45;6.75;;;;;;;26.57;52.58;101489.72;4965202;28;20053;-84
2022/08/09 07:16:32;;;;;;;9.60;6.95;;;;;;;26.81;52.63;101516.13;4950211;28;20478;-86
2022/08/09 07:19:15;;;;;;;8.65;6.70;;;;;;;27.05;52.81;101533.50;4951838;28;20070;-85
2022/08/09 07:21:49;;;;;;;8.82;6.78;;;;;;;26.49;52.53;101420.00;4925912;29;20052;-85
2022/08/09 07:24:26;;;;;;;9.18;7.15;;;;;;;26.00;52.08;101329.13;4925412;29;20056;-86
2022/08/09 07:27:00;;;;;;;9.85;6.85;;;;;;;26.76;51.98;101447.03;4924433;29;20530;-86
2022/08/09 07:29:27;;;;;;;9.60;6.18;;;;;;;27.64;51.45;101561.25;4925702;29;20056;-84
2022/08/09 07:32:04;;;;;;;6.65;6.13;;;;;;;27.63;51.25;101558.78;4924478;29;20059;-85
2022/08/09 07:34:31;;;;;;;6.30;5.80;;;;;;;27.42;50.78;101521.88;4939282;29;20059;-85
2022/08/09 07:36:59;;;;;;;6.68;6.18;;;;;;;27.45;49.81;101511.34;4928754;29;20261;-85
2022/08/09 07:39:29;;;;;;;6.38;5.78;;;;;;;27.30;49.28;101486.34;4928797;29;20119;-85
2022/08/09 07:42:07;;;;;;;6.88;6.15;;;;;;;27.14;48.91;101449.59;4947754;29;20423;-85
2022/08/09 07:44:35;;;;;;;9.10;6.78;;;;;;;27.40;48.36;101494.81;4955514;29;20070;-86
2022/08/09 07:47:19;;;;;;;6.60;6.00;;;;;;;27.14;47.86;101448.72;4951898;29;20071;-89
2022/08/09 07:49:47;;;;;;;6.40;5.72;;;;;;;27.25;47.87;101469.84;4952330;29;20470;-85
2022/08/09 07:52:34;;;;;;;7.78;6.35;;;;;;;27.27;48.11;101486.78;4945695;29;20047;-85
2022/08/09 07:55:02;;;;;;;5.65;5.18;;;;;;;27.26;48.92;101483.25;4946457;29;20056;-86
2022/08/09 07:57:35;;;;;;;6.90;5.43;;;;;;;27.46;48.41;101518.47;4930573;29;20082;-84
2022/08/09 08:00:04;;;;;;;6.43;5.72;;;;;;;27.74;48.49;101558.00;4946498;29;20099;-87
2022/08/09 08:02:34;;;;;;;8.32;6.07;;;;;;;26.47;48.21;101350.50;4945363;29;20103;-84
2022/08/09 08:05:08;;;;;;;7.70;5.95;;;;;;;26.39;48.55;101332.56;4945368;29;20576;-85
2022/08/09 08:07:44;;;;;;;7.50;6.07;;;;;;;26.97;48.58;101416.66;4944518;29;20060;-85
2022/08/09 08:10:31;;;;;;;6.15;5.75;;;;;;;27.06;48.10;101418.03;4943003;29;20162;-85
2022/08/09 08:13:00;;;;;;;6.57;5.88;;;;;;;26.70;48.79;101342.56;4945516;29;20059;-86
2022/08/09 08:15:29;;;;;;;6.75;5.30;;;;;;;27.44;48.62;101454.31;4931538;29;20055;-85
2022/08/09 08:18:01;;;;;;;7.55;5.53;;;;;;;27.37;48.62;101427.13;4930059;29;20048;-85
2022/08/09 08:20:29;;;;;;;6.78;5.68;;;;;;;26.89;48.21;101350.72;4929688;29;20462;-85
2022/08/09 08:23:01;;;;;;;10.32;6.07;;;;;;;27.34;47.75;101424.84;4930681;28;20059;-87
2022/08/09 08:25:44;;;;;;;6.63;5.32;;;;;;;27.41;47.97;101439.25;4929988;29;20079;-85
2022/08/09 08:28:20;;;;;;;7.38;5.93;;;;;;;27.51;47.08;101443.34;4944594;29;20139;-86
2022/08/09 08:30:58;;;;;;;10.40;5.90;;;;;;;27.74;47.01;101486.25;4929598;29;20062;-85
2022/08/09 08:33:28;;;;;;;6.28;5.68;;;;;;;27.26;47.81;101397.91;4923667;29;20080;-86
2022/08/09 08:36:17;;;;;;;7.90;6.13;;;;;;;28.27;48.09;101557.34;4923418;29;20146;-85
2022/08/09 08:38:55;;;;;;;6.13;5.53;;;;;;;27.19;47.66;101350.81;4924722;29;20040;-85
2022/08/09 08:41:23;;;;;;;10.63;5.85;;;;;;;28.03;47.50;101477.28;4926106;29;20444;-85
2022/08/09 08:44:08;;;;;;;10.20;6.30;;;;;;;28.61;47.85;101541.34;4923772;29;20433;-87
2022/08/09 08:46:40;;;;;;;5.53;5.03;;;;;;;28.77;47.36;101556.25;4925184;29;20517;-85
2022/08/09 08:49:29;;;;;;;11.27;6.40;;;;;;;28.38;46.71;101462.91;4923790;29;20459;-86
2022/08/09 08:52:06;;;;;;;7.43;6.70;;;;;;;28.76;46.66;101516.31;4928195;29;20578;-85
2022/08/09 08:54:36;;;;;;;8.18;5.50;;;;;;;28.07;45.70;101382.13;4928662;29;20516;-85
2022/08/09 08:57:04;;;;;;;6.82;6.10;;;;;;;27.95;46.09;101379.38;4929353;29;20471;-84
2022/08/09 08:59:37;;;;;;;7.15;5.35;;;;;;;28.99;44.92;101512.78;4931874;29;20144;-83
2022/08/09 09:02:22;;;;;;;7.82;5.63;;;;;;;29.21;44.79;101525.91;4932960;29;20059;-81
2022/08/09 09:04:59;;;;;;;7.25;5.60;;;;;;;29.09;44.01;101487.63;4915802;29;20055;-81
2022/08/09 09:07:41;;;;;;;8.75;5.88;;;;;;;28.97;43.98;101463.00;4928287;29;20443;-81
2022/08/09 09:10:10;;;;;;;6.28;5.70;;;;;;;29.06;44.02;101458.88;4929512;29;20060;-83
2022/08/09 09:12:38;;;;;;;8.70;6.20;;;;;;;28.68;43.71;101415.59;4929512;29;20056;-82
2022/08/09 09:15:06;;;;;;;6.13;5.05;;;;;;;29.44;44.16;101506.72;4914886;29;20055;-84
2022/08/09 09:17:37;;;;;;;6.72;5.70;;;;;;;29.03;43.04;101436.59;4929211;29;20131;-79
2022/08/09 09:20:18;;;;;;;6.95;5.78;;;;;;;29.71;43.15;101539.03;4927342;29;20243;-82
2022/08/09 09:22:57;;;;;;;6.07;5.47;;;;;;;29.85;43.00;101524.00;4914430;29;20078;-81
2022/08/09 09:25:36;;;;;;;7.82;5.97;;;;;;;29.12;43.00;101392.28;4928913;29;20052;-81
2022/08/09 09:28:31;;;;;;;6.38;5.78;;;;;;;29.19;42.62;101362.91;4914238;29;20150;-82
2022/08/09 09:31:20;;;;;;;6.38;5.68;;;;;;;29.67;42.12;101428.44;4914825;29;20119;-81
2022/08/09 09:34:11;;;;;;;7.00;5.95;;;;;;;29.35;41.83;101404.25;4923285;29;20058;-80
2022/08/09 09:36:40;;;;;;;14.93;5.70;;;;;;;29.55;42.35;101448.41;4947832;28;20055;-85
2022/08/09 09:39:21;;;;;;;6.85;5.85;;;;;;;29.07;42.07;101364.84;4945978;28;20442;-83
2022/08/09 09:41:51;;;;;;;8.52;5.40;;;;;;;29.55;41.56;101426.53;4946999;28;20613;-86
2022/08/09 09:44:29;;;;;;;8.15;5.78;;;;;;;30.10;41.65;101520.09;4947415;28;20247;-84
2022/08/09 09:47:08;;;;;;;9.00;5.45;;;;;;;29.66;41.10;101454.09;4931517;29;20521;-83
2022/08/09 09:49:37;;;;;;;7.75;6.30;;;;;;;30.09;41.38;101491.91;4931416;29;20082;-84
2022/08/09 09:52:26;;;;;;;10.27;6.25;;;;;;;30.46;41.04;101505.19;4944732;28;20104;-84
2022/08/09 09:55:08;;;;;;;10.52;5.57;;;;;;;30.12;40.32;101392.03;4946198;29;20051;-85
2022/08/09 09:58:03;;;;;;;10.60;5.28;;;;;;;30.66;39.91;101444.44;4945527;28;20496;-84
2022/08/09 10:00:55;;;;;;;8.35;5.88;;;;;;;30.23;38.40;101382.91;4944789;28;20107;-85
2022/08/09 10:03:46;;;;;;;7.38;5.57;;;;;;;30.17;38.01;101361.97;4930294;29;20471;-84
2022/08/09 10:06:39;;;;;;;7.00;5.50;;;;;;;30.15;38.11;101348.56;4944065;28;20429;-85
2022/08/09 10:09:11;;;;;;;16.13;6.43;;;;;;;31.27;38.20;101453.56;4931490;29;20118;-85
2022/08/09 10:12:00;;;;;;;21.00;6.00;;;;;;;31.54;38.32;101490.41;4932189;29;20458;-86
2022/08/09 10:14:47;;;;;;;10.38;5.55;;;;;;;31.41;38.37;101448.56;4932204;28;20056;-85
2022/08/09 10:17:23;;;;;;;5.65;5.15;;;;;;;31.32;39.00;101439.09;4932677;28;20155;-85
2022/08/09 10:20:19;;;;;;;7.90;5.65;;;;;;;31.90;38.05;101516.38;4945733;29;20056;-86
2022/08/09 10:23:11;;;;;;;12.55;6.15;;;;;;;31.82;37.84;101503.09;4945530;29;20083;-86
2022/08/09 10:25:39;;;;;;;;;;;;;;;32.03;36.83;101509.69;4932873;29;20094;-85
2022/08/09 10:28:26;;;;;;;11.80;4.63;;;;;;;32.05;37.47;101516.56;4931372;29;19978;-85
2022/08/09 10:30:54;;;;;;;5.18;4.68;;;;;;;31.74;36.61;101476.94;4946941;29;20480;-84
2022/08/09 10:33:41;;;;;;;9.27;4.45;;;;;;;31.97;35.96;101514.28;4931747;29;20054;-85
2022/08/09 10:36:30;;;;;;;8.23;4.03;;;;;;;32.10;35.07;101507.56;4943662;28;20422;-85
2022/08/09 10:39:01;;;;;;;11.75;4.43;;;;;;;31.64;35.30;101436.47;4932588;29;20059;-85
2022/08/09 10:41:27;;;;;;;5.43;3.78;;;;;;;32.24;34.35;101507.97;4946533;29;20063;-86
2022/08/09 10:43:57;;;;;;;7.95;3.95;;;;;;;31.53;34.59;101374.31;4946171;29;20055;-85
2022/08/09 10:46:50;;;;;;;6.78;4.00;;;;;;;32.35;33.59;101502.31;4946168;29;20059;-86
2022/08/09 10:49:38;;;;;;;8.13;3.55;;;;;;;32.46;33.59;101503.25;4945680;28;20099;-85
2022/08/09 10:52:29;;;;;;;7.32;3.83;;;;;;;32.52;34.05;101496.72;4944589;29;20058;-86
2022/08/09 10:55:17;;;;;;;6.53;3.80;;;;;;;32.79;33.58;101498.56;4946869;29;20056;-84
2022/08/09 10:57:44;;;;;;;7.32;3.72;;;;;;;32.01;33.57;101334.19;4931679;28;20111;-83
2022/08/09 11:00:40;;;;;;;8.27;3.28;;;;;;;33.32;33.21;101477.47;4937281;29;20056;-86
2022/08/09 11:03:26;;;;;;;7.15;3.80;;;;;;;32.91;32.69;101405.72;4948522;29;20056;-86
2022/08/09 11:06:24;;;;;;;8.90;3.65;;;;;;;33.54;32.34;101474.53;4946908;28;20083;-86
2022/08/09 11:08:52;;;;;;;9.15;3.88;;;;;;;32.65;32.22;101313.19;4945617;28;20055;-84
2022/08/09 11:11:20;;;;;;;10.95;3.92;;;;;;;32.76;32.55;101317.66;4945699;29;20047;-86
2022/08/09 11:14:25;;;;;;;8.52;4.35;;;;;;;33.50;32.14;101426.66;4944370;28;20439;-86
2022/08/09 11:16:55;;;;;;;7.13;4.07;;;;;;;33.78;31.82;101444.63;4945520;28;20134;-85
2022/08/09 11:19:52;;;;;;;7.43;3.90;;;;;;;34.12;31.33;101468.97;4941749;28;20048;-86
2022/08/09 11:25:17;;;;;;;7.80;3.75;;;;;;;34.12;31.49;101460.69;4912301;29;20103;-86
2022/08/09 11:27:53;;;;;;;7.57;4.07;;;;;;;33.66;31.44;101366.97;4911281;29;20083;-87
2022/08/09 11:30:40;;;;;;;6.35;3.60;;;;;;;33.92;31.76;101408.31;4922749;29;20342;-86
2022/08/09 11:33:16;;;;;;;6.15;4.13;;;;;;;34.31;31.44;101465.69;4929023;29;20048;-86
2022/08/09 11:35:46;;;;;;;8.32;4.57;;;;;;;34.30;30.41;101452.97;4944661;29;20052;-85
2022/08/09 11:38:24;;;;;;;5.82;4.40;;;;;;;33.50;29.99;101300.03;4944701;29;20133;-85
2022/08/09 11:41:04;;;;;;;9.65;4.50;;;;;;;34.13;29.23;101387.97;4944363;29;20056;-86
2022/08/09 11:43:34;;;;;;;7.68;4.15;;;;;;;34.63;29.92;101440.59;4930315;29;20048;-87
2022/08/09 11:46:04;;;;;;;5.20;3.47;;;;;;;33.64;30.27;101275.56;4944945;29;20059;-88
2022/08/09 11:48:44;;;;;;;6.65;3.63;;;;;;;34.79;29.73;101438.66;4944874;29;20075;-87
2022/08/09 11:51:11;;;;;;;8.88;4.07;;;;;;;34.53;29.79;101368.91;4944995;29;20107;-87
2022/08/09 11:54:17;;;;;;;7.18;3.70;;;;;;;34.51;29.47;101344.38;4942321;29;20048;-86
2022/08/09 11:57:38;;;;;;;4.70;3.78;;;;;;;35.18;28.57;101438.84;4929097;29;20056;-86
2022/08/09 12:00:31;;;;;;;5.97;3.85;;;;;;;34.61;28.51;101311.28;4942644;29;20060;-86
2022/08/09 12:03:00;;;;;;;9.02;3.60;;;;;;;35.18;28.74;101350.53;4929251;29;20066;-86
2022/08/09 12:05:48;;;;;;;7.93;3.67;;;;;;;35.30;28.00;101341.91;4929378;29;20099;-87
2022/08/09 12:08:17;;;;;;;8.30;4.00;;;;;;;35.66;27.54;101370.16;4944726;29;20056;-86